createdAt,value
2017-10-17T00:00:13.180Z,78.05
2017-10-17T00:01:12.317Z,77.86
2017-10-17T00:02:12.247Z,77.58
2017-10-17T00:03:12.629Z,77.48
2017-10-17T00:04:13.533Z,77.48
2017-10-17T00:05:13.099Z,77.38
2017-10-17T00:06:12.789Z,77.19
2017-10-17T00:07:13.493Z,77.19
2017-10-17T00:08:12.937Z,77.29
2017-10-17T00:09:12.618Z,77.00
2017-10-17T00:10:12.746Z,76.81
2017-10-17T00:11:13.525Z,76.81
2017-10-17T00:12:12.444Z,76.81
2017-10-17T00:13:12.309Z,76.62
2017-10-17T00:14:12.750Z,76.32
2017-10-17T00:15:12.833Z,76.23
2017-10-17T00:16:13.643Z,76.42
2017-10-17T00:17:12.598Z,76.23
2017-10-17T00:18:12.632Z,76.32
2017-10-17T00:19:12.687Z,76.52
2017-10-17T00:20:13.087Z,76.62
2017-10-17T00:21:13.417Z,76.52
2017-10-17T00:22:12.678Z,76.52
2017-10-17T00:23:12.555Z,76.71
2017-10-17T00:24:12.984Z,76.62
2017-10-17T00:25:13.327Z,76.32
2017-10-17T00:26:13.872Z,76.32
2017-10-17T00:27:13.220Z,76.32
2017-10-17T00:28:12.683Z,76.42
2017-10-17T00:29:13.110Z,76.62
2017-10-17T00:30:12.490Z,76.67
2017-10-17T00:31:13.031Z,76.71
2017-10-17T00:32:13.537Z,76.86
2017-10-17T00:33:12.866Z,76.96
2017-10-17T00:34:12.937Z,76.96
2017-10-17T00:35:12.996Z,77.06
2017-10-17T00:36:13.185Z,77.06
2017-10-17T00:37:12.411Z,76.96
2017-10-17T00:38:13.648Z,76.67
2017-10-17T00:39:12.980Z,76.57
2017-10-17T00:40:13.150Z,76.67
2017-10-17T00:41:13.368Z,76.57
2017-10-17T00:42:12.761Z,76.77
2017-10-17T00:43:13.562Z,76.96
2017-10-17T00:44:13.111Z,77.15
2017-10-17T00:45:13.167Z,77.06
2017-10-17T00:46:12.565Z,76.96
2017-10-17T00:47:12.687Z,76.86
2017-10-17T00:48:13.712Z,76.77
2017-10-17T00:49:13.252Z,76.77
2017-10-17T00:50:13.013Z,76.77
2017-10-17T00:51:13.355Z,76.67
2017-10-17T00:52:13.255Z,76.57
2017-10-17T00:53:12.552Z,76.86
2017-10-17T00:54:12.763Z,77.06
2017-10-17T00:55:12.681Z,76.96
2017-10-17T00:56:12.918Z,77.06
2017-10-17T00:57:12.971Z,77.15
2017-10-17T00:58:12.917Z,76.86
2017-10-17T00:59:13.387Z,76.57
2017-10-17T01:00:12.722Z,76.48
2017-10-17T01:01:12.740Z,76.57
2017-10-17T01:02:13.067Z,76.67
2017-10-17T01:03:12.902Z,76.57
2017-10-17T01:04:13.279Z,76.86
2017-10-17T01:05:12.614Z,76.96
2017-10-17T01:06:13.025Z,77.15
2017-10-17T01:07:13.201Z,77.25
2017-10-17T01:08:12.821Z,77.40
2017-10-17T01:09:13.594Z,77.50
2017-10-17T01:10:12.907Z,77.69
2017-10-17T01:11:12.897Z,77.78
2017-10-17T01:12:12.914Z,77.59
2017-10-17T01:13:13.532Z,77.78
2017-10-17T01:14:13.111Z,77.78
2017-10-17T01:15:13.891Z,77.88
2017-10-17T01:16:13.215Z,77.88
2017-10-17T01:17:12.972Z,77.97
2017-10-17T01:18:13.072Z,78.07
2017-10-17T01:19:12.554Z,77.88
2017-10-17T01:20:13.143Z,77.78
2017-10-17T01:21:12.975Z,77.88
2017-10-17T01:22:13.345Z,78.07
2017-10-17T01:23:12.929Z,78.07
2017-10-17T01:24:13.265Z,78.07
2017-10-17T01:25:12.825Z,78.27
2017-10-17T01:26:13.555Z,78.17
2017-10-17T01:27:13.050Z,78.17
2017-10-17T01:28:13.486Z,78.36
2017-10-17T01:29:13.038Z,78.45
2017-10-17T01:30:13.500Z,78.36
2017-10-17T01:31:13.078Z,78.36
2017-10-17T01:32:13.870Z,78.36
2017-10-17T01:33:12.957Z,78.36
2017-10-17T01:34:13.131Z,78.45
2017-10-17T01:35:12.441Z,78.45
2017-10-17T01:36:12.669Z,78.74
2017-10-17T01:37:13.566Z,79.13
2017-10-17T01:38:12.851Z,79.22
2017-10-17T01:39:12.941Z,79.37
2017-10-17T01:40:13.127Z,79.47
2017-10-17T01:41:12.526Z,79.66
2017-10-17T01:42:12.888Z,79.75
2017-10-17T01:43:12.744Z,79.66
2017-10-17T01:44:12.992Z,79.57
2017-10-17T01:45:12.497Z,79.47
2017-10-17T01:46:13.062Z,79.47
2017-10-17T01:47:12.361Z,79.47
2017-10-17T01:48:13.120Z,79.57
2017-10-17T01:49:12.787Z,79.66
2017-10-17T01:50:13.028Z,79.66
2017-10-17T01:51:12.354Z,79.57
2017-10-17T01:52:12.671Z,79.57
2017-10-17T01:53:13.424Z,79.57
2017-10-17T01:54:12.903Z,79.57
2017-10-17T01:55:12.844Z,79.57
2017-10-17T01:56:12.524Z,79.66
2017-10-17T01:57:12.807Z,79.66
2017-10-17T01:58:12.913Z,79.85
2017-10-17T01:59:13.253Z,79.95
2017-10-17T02:00:12.449Z,79.95
2017-10-17T02:01:12.678Z,79.95
2017-10-17T02:02:12.839Z,80.04
2017-10-17T02:03:13.044Z,80.14
2017-10-17T02:04:12.360Z,80.14
2017-10-17T02:05:12.662Z,80.33
2017-10-17T02:06:12.470Z,80.33
2017-10-17T02:07:12.580Z,80.33
2017-10-17T02:08:12.696Z,80.33
2017-10-17T02:09:13.177Z,80.24
2017-10-17T02:10:13.846Z,80.33
2017-10-17T02:11:12.611Z,80.43
2017-10-17T02:12:12.658Z,80.62
2017-10-17T02:13:12.808Z,80.71
2017-10-17T02:14:12.681Z,80.71
2017-10-17T02:15:12.611Z,80.71
2017-10-17T02:16:12.957Z,80.71
2017-10-17T02:17:13.538Z,81.00
2017-10-17T02:18:13.049Z,81.00
2017-10-17T02:19:12.830Z,81.10
2017-10-17T02:20:12.695Z,81.29
2017-10-17T02:21:13.268Z,81.20
2017-10-17T02:22:12.550Z,81.29
2017-10-17T02:23:12.743Z,81.38
2017-10-17T02:24:12.791Z,81.48
2017-10-17T02:25:13.298Z,81.57
2017-10-17T02:26:12.727Z,81.57
2017-10-17T02:27:12.969Z,81.57
2017-10-17T02:28:12.855Z,81.77
2017-10-17T02:29:12.433Z,81.77
2017-10-17T02:30:12.456Z,81.82
2017-10-17T02:31:12.393Z,81.86
2017-10-17T02:32:12.698Z,81.96
2017-10-17T02:33:13.807Z,81.96
2017-10-17T02:34:12.843Z,81.92
2017-10-17T02:35:12.323Z,82.01
2017-10-17T02:36:12.835Z,82.20
2017-10-17T02:37:13.316Z,82.40
2017-10-17T02:38:12.488Z,82.49
2017-10-17T02:39:12.822Z,82.68
2017-10-17T02:40:12.867Z,82.78
2017-10-17T02:41:13.223Z,82.87
2017-10-17T02:42:12.287Z,82.87
2017-10-17T02:43:12.406Z,82.87
2017-10-17T02:44:12.327Z,82.97
2017-10-17T02:45:13.143Z,82.97
2017-10-17T02:46:12.366Z,83.16
2017-10-17T02:47:12.760Z,83.36
2017-10-17T02:48:12.649Z,83.54
2017-10-17T02:49:12.797Z,83.64
2017-10-17T02:50:13.396Z,83.73
2017-10-17T02:51:12.779Z,83.93
2017-10-17T02:52:13.065Z,84.02
2017-10-17T02:53:12.525Z,84.12
2017-10-17T02:54:12.978Z,84.02
2017-10-17T02:55:13.867Z,84.02
2017-10-17T02:56:12.840Z,84.02
2017-10-17T02:57:13.453Z,84.22
2017-10-17T02:58:12.919Z,84.31
2017-10-17T02:59:13.057Z,84.46
2017-10-17T03:00:13.532Z,84.55
2017-10-17T03:01:13.004Z,84.84
2017-10-17T03:02:13.114Z,84.94
2017-10-17T03:03:13.351Z,84.94
2017-10-17T03:04:12.818Z,84.94
2017-10-17T03:05:12.589Z,85.03
2017-10-17T03:06:14.027Z,85.03
2017-10-17T03:07:13.450Z,85.03
2017-10-17T03:08:12.334Z,85.13
2017-10-17T03:09:13.090Z,85.32
2017-10-17T03:10:13.398Z,85.51
2017-10-17T03:11:12.599Z,85.71
2017-10-17T03:12:12.827Z,85.80
2017-10-17T03:13:13.032Z,85.89
2017-10-17T03:14:13.100Z,86.28
2017-10-17T03:15:12.492Z,86.57
2017-10-17T03:16:12.276Z,86.66
2017-10-17T03:17:12.459Z,86.85
2017-10-17T03:18:13.033Z,86.85
2017-10-17T03:19:12.529Z,86.80
2017-10-17T03:20:12.768Z,87.09
2017-10-17T03:21:13.905Z,87.38
2017-10-17T03:22:13.355Z,87.76
2017-10-17T03:23:13.257Z,87.86
2017-10-17T03:24:12.797Z,87.95
2017-10-17T03:25:13.003Z,88.05
2017-10-17T03:26:13.388Z,88.15
2017-10-17T03:27:12.758Z,88.24
2017-10-17T03:28:13.440Z,88.43
2017-10-17T03:29:12.779Z,88.43
2017-10-17T03:30:12.793Z,88.43
2017-10-17T03:31:12.797Z,88.53
2017-10-17T03:32:12.951Z,88.62
2017-10-17T03:33:13.808Z,88.81
2017-10-17T03:34:12.613Z,88.91
2017-10-17T03:35:12.418Z,89.01
2017-10-17T03:36:12.601Z,88.91
2017-10-17T03:37:12.640Z,89.10
2017-10-17T03:38:12.847Z,89.20
2017-10-17T03:39:13.203Z,89.20
2017-10-17T03:40:12.595Z,89.20
2017-10-17T03:41:12.657Z,89.20
2017-10-17T03:42:13.175Z,89.20
2017-10-17T03:43:12.447Z,89.39
2017-10-17T03:44:12.729Z,89.39
2017-10-17T03:45:13.671Z,89.48
2017-10-17T03:46:13.012Z,89.58
2017-10-17T03:47:13.259Z,89.58
2017-10-17T03:48:12.460Z,89.58
2017-10-17T03:49:12.829Z,89.67
2017-10-17T03:50:13.949Z,89.58
2017-10-17T03:51:12.394Z,89.58
2017-10-17T03:52:12.716Z,89.48
2017-10-17T03:53:12.755Z,89.48
2017-10-17T03:54:12.870Z,89.58
2017-10-17T03:55:12.868Z,89.58
2017-10-17T03:56:13.522Z,89.58
2017-10-17T03:57:12.675Z,89.58
2017-10-17T03:58:13.060Z,89.67
2017-10-17T03:59:13.303Z,89.77
2017-10-17T04:00:12.978Z,89.77
2017-10-17T04:01:13.033Z,89.77
2017-10-17T04:02:13.926Z,89.77
2017-10-17T04:03:12.628Z,89.77
2017-10-17T04:04:12.401Z,89.67
2017-10-17T04:05:12.408Z,89.58
2017-10-17T04:06:13.133Z,89.48
2017-10-17T04:07:13.597Z,89.48
2017-10-17T04:08:12.382Z,89.58
2017-10-17T04:09:12.504Z,89.67
2017-10-17T04:10:12.543Z,89.77
2017-10-17T04:11:12.793Z,89.96
2017-10-17T04:12:12.651Z,89.96
2017-10-17T04:13:13.115Z,90.06
2017-10-17T04:14:12.150Z,90.25
2017-10-17T04:15:12.637Z,90.34
2017-10-17T04:16:12.868Z,90.53
2017-10-17T04:17:12.520Z,90.53
2017-10-17T04:18:12.341Z,90.82
2017-10-17T04:19:13.199Z,91.02
2017-10-17T04:20:12.067Z,91.20
2017-10-17T04:21:12.152Z,91.20
2017-10-17T04:22:13.027Z,91.30
2017-10-17T04:23:13.475Z,91.30
2017-10-17T04:24:12.337Z,91.30
2017-10-17T04:25:12.574Z,91.39
2017-10-17T04:26:13.167Z,91.39
2017-10-17T04:27:13.152Z,91.39
2017-10-17T04:28:12.054Z,91.59
2017-10-17T04:29:13.447Z,91.68
2017-10-17T04:30:12.721Z,91.59
2017-10-17T04:31:13.385Z,91.59
2017-10-17T04:32:12.614Z,91.59
2017-10-17T04:33:13.130Z,91.68
2017-10-17T04:34:13.032Z,91.68
2017-10-17T04:35:13.330Z,91.78
2017-10-17T04:36:12.677Z,91.88
2017-10-17T04:37:13.011Z,91.97
2017-10-17T04:38:13.434Z,92.16
2017-10-17T04:39:12.545Z,92.35
2017-10-17T04:40:12.710Z,92.35
2017-10-17T04:41:13.110Z,92.45
2017-10-17T04:42:12.065Z,92.64
2017-10-17T04:43:12.754Z,92.74
2017-10-17T04:44:12.528Z,92.83
2017-10-17T04:45:12.849Z,92.83
2017-10-17T04:46:13.534Z,93.02
2017-10-17T04:47:12.540Z,93.07
2017-10-17T04:48:13.273Z,93.26
2017-10-17T04:49:12.652Z,93.55
2017-10-17T04:50:12.928Z,93.74
2017-10-17T04:51:13.879Z,93.84
2017-10-17T04:52:12.453Z,93.93
2017-10-17T04:53:12.269Z,94.22
2017-10-17T04:54:12.778Z,94.41
2017-10-17T04:55:13.326Z,94.41
2017-10-17T04:56:12.943Z,94.70
2017-10-17T04:57:13.999Z,94.89
2017-10-17T04:58:12.941Z,94.79
2017-10-17T04:59:12.266Z,94.98
2017-10-17T05:00:12.706Z,94.98
2017-10-17T05:01:13.219Z,95.07
2017-10-17T05:02:12.256Z,95.36
2017-10-17T05:03:13.149Z,95.56
2017-10-17T05:04:13.106Z,95.75
2017-10-17T05:05:13.816Z,95.84
2017-10-17T05:06:12.761Z,95.94
2017-10-17T05:07:12.897Z,96.03
2017-10-17T05:08:13.143Z,96.13
2017-10-17T05:09:13.429Z,96.22
2017-10-17T05:10:13.273Z,96.22
2017-10-17T05:11:12.320Z,96.13
2017-10-17T05:12:12.819Z,96.13
2017-10-17T05:13:13.639Z,96.22
2017-10-17T05:14:12.713Z,96.32
2017-10-17T05:15:12.968Z,96.22
2017-10-17T05:16:13.517Z,96.17
2017-10-17T05:17:13.277Z,96.17
2017-10-17T05:18:13.438Z,96.66
2017-10-17T05:19:12.825Z,97.13
2017-10-17T05:20:13.328Z,97.23
2017-10-17T05:21:12.209Z,97.32
2017-10-17T05:22:12.795Z,97.23
2017-10-17T05:23:12.870Z,97.23
2017-10-17T05:24:13.705Z,97.32
2017-10-17T05:25:13.533Z,97.32
2017-10-17T05:26:12.997Z,97.32
2017-10-17T05:27:13.461Z,97.32
2017-10-17T05:28:13.209Z,97.32
2017-10-17T05:29:13.751Z,97.13
2017-10-17T05:30:12.369Z,97.13
2017-10-17T05:31:12.485Z,97.32
2017-10-17T05:32:12.381Z,97.32
2017-10-17T05:33:12.525Z,97.42
2017-10-17T05:34:12.769Z,97.52
2017-10-17T05:35:13.231Z,97.52
2017-10-17T05:36:12.855Z,97.42
2017-10-17T05:37:19.885Z,97.32
2017-10-17T05:38:12.496Z,97.13
2017-10-17T05:39:13.144Z,96.94
2017-10-17T05:40:14.556Z,96.84
2017-10-17T05:41:13.079Z,96.84
2017-10-17T05:42:13.096Z,96.75
2017-10-17T05:43:12.184Z,96.84
2017-10-17T05:44:12.322Z,96.75
2017-10-17T05:45:12.774Z,96.84
2017-10-17T05:46:13.882Z,96.66
2017-10-17T05:47:12.925Z,96.66
2017-10-17T05:48:13.243Z,96.37
2017-10-17T05:49:12.639Z,96.17
2017-10-17T05:50:12.710Z,96.08
2017-10-17T05:51:13.364Z,95.79
2017-10-17T05:52:12.859Z,95.61
2017-10-17T05:53:13.398Z,95.41
2017-10-17T05:54:13.059Z,95.41
2017-10-17T05:55:13.524Z,95.41
2017-10-17T05:56:13.099Z,95.32
2017-10-17T05:57:13.843Z,95.22
2017-10-17T05:58:13.722Z,95.12
2017-10-17T05:59:12.971Z,95.03
2017-10-17T06:00:12.815Z,94.84
2017-10-17T06:01:13.051Z,94.74
2017-10-17T06:02:13.442Z,94.65
2017-10-17T06:03:13.159Z,94.55
2017-10-17T06:04:12.424Z,94.55
2017-10-17T06:05:12.603Z,94.55
2017-10-17T06:06:12.665Z,94.55
2017-10-17T06:07:12.960Z,94.55
2017-10-17T06:08:13.447Z,94.65
2017-10-17T06:09:12.817Z,94.55
2017-10-17T06:10:13.525Z,94.55
2017-10-17T06:11:12.886Z,94.46
2017-10-17T06:12:13.370Z,94.46
2017-10-17T06:13:12.619Z,94.55
2017-10-17T06:14:13.704Z,94.65
2017-10-17T06:15:13.396Z,94.55
2017-10-17T06:16:12.531Z,94.55
2017-10-17T06:17:13.122Z,94.65
2017-10-17T06:18:13.679Z,94.74
2017-10-17T06:19:13.113Z,94.84
2017-10-17T06:20:13.699Z,94.84
2017-10-17T06:21:13.514Z,94.84
2017-10-17T06:22:13.025Z,94.84
2017-10-17T06:23:13.109Z,94.84
2017-10-17T06:24:12.806Z,94.84
2017-10-17T06:25:13.607Z,94.84
2017-10-17T06:26:12.856Z,94.93
2017-10-17T06:27:13.053Z,94.93
2017-10-17T06:28:13.001Z,94.93
2017-10-17T06:29:13.415Z,94.93
2017-10-17T06:30:12.524Z,95.12
2017-10-17T06:31:14.645Z,95.12
2017-10-17T06:32:12.646Z,95.12
2017-10-17T06:33:12.625Z,95.03
2017-10-17T06:34:12.824Z,94.93
2017-10-17T06:35:12.821Z,94.65
2017-10-17T06:36:13.445Z,94.55
2017-10-17T06:37:12.444Z,94.46
2017-10-17T06:38:12.897Z,94.46
2017-10-17T06:39:12.882Z,94.65
2017-10-17T06:40:13.394Z,94.55
2017-10-17T06:41:12.886Z,94.74
2017-10-17T06:42:13.342Z,94.84
2017-10-17T06:43:12.378Z,94.74
2017-10-17T06:44:12.825Z,94.65
2017-10-17T06:45:15.021Z,94.65
2017-10-17T06:46:13.415Z,94.65
2017-10-17T06:47:12.583Z,94.65
2017-10-17T06:48:13.640Z,94.70
2017-10-17T06:49:12.797Z,94.70
2017-10-17T06:50:12.982Z,94.70
2017-10-17T06:51:13.508Z,94.70
2017-10-17T06:52:12.961Z,94.60
2017-10-17T06:53:13.224Z,94.60
2017-10-17T06:54:12.745Z,94.60
2017-10-17T06:55:13.246Z,94.70
2017-10-17T06:56:12.564Z,94.74
2017-10-17T06:57:12.789Z,94.74
2017-10-17T06:58:12.805Z,94.74
2017-10-17T06:59:14.282Z,94.79
2017-10-17T07:00:12.724Z,94.70
2017-10-17T07:01:13.649Z,94.60
2017-10-17T07:02:13.491Z,94.60
2017-10-17T07:03:12.915Z,94.41
2017-10-17T07:04:14.072Z,94.22
2017-10-17T07:05:13.650Z,94.02
2017-10-17T07:06:13.480Z,93.84
2017-10-17T07:07:12.761Z,93.74
2017-10-17T07:08:13.087Z,93.65
2017-10-17T07:09:12.763Z,93.65
2017-10-17T07:10:13.507Z,93.55
2017-10-17T07:11:13.280Z,93.65
2017-10-17T07:12:12.467Z,93.65
2017-10-17T07:13:12.468Z,93.74
2017-10-17T07:14:12.507Z,93.74
2017-10-17T07:15:12.787Z,93.74
2017-10-17T07:16:13.184Z,93.74
2017-10-17T07:17:12.935Z,93.74
2017-10-17T07:18:12.831Z,93.84
2017-10-17T07:19:13.330Z,93.74
2017-10-17T07:20:12.700Z,93.74
2017-10-17T07:21:13.219Z,93.65
2017-10-17T07:22:13.275Z,93.55
2017-10-17T07:23:13.349Z,93.40
2017-10-17T07:24:14.169Z,93.26
2017-10-17T07:25:13.517Z,93.31
2017-10-17T07:26:14.167Z,93.12
2017-10-17T07:27:13.108Z,93.02
2017-10-17T07:28:14.118Z,93.02
2017-10-17T07:29:12.912Z,92.74
2017-10-17T07:30:13.607Z,92.64
2017-10-17T07:31:13.505Z,92.64
2017-10-17T07:32:12.818Z,92.35
2017-10-17T07:33:13.318Z,92.16
2017-10-17T07:34:12.669Z,91.97
2017-10-17T07:35:13.474Z,91.68
2017-10-17T07:36:13.065Z,91.49
2017-10-17T07:37:13.742Z,91.30
2017-10-17T07:38:13.376Z,91.11
2017-10-17T07:39:13.018Z,91.02
2017-10-17T07:40:14.991Z,90.73
2017-10-17T07:41:13.661Z,90.44
2017-10-17T07:42:13.328Z,90.25
2017-10-17T07:43:13.028Z,89.96
2017-10-17T07:44:14.972Z,89.87
2017-10-17T07:45:12.969Z,89.48
2017-10-17T07:46:12.617Z,89.39
2017-10-17T07:47:13.370Z,89.24
2017-10-17T07:48:12.568Z,88.95
2017-10-17T07:49:13.359Z,89.05
2017-10-17T07:50:13.257Z,88.57
2017-10-17T07:51:12.441Z,88.38
2017-10-17T07:52:12.645Z,88.19
2017-10-17T07:53:13.205Z,87.71
2017-10-17T07:54:14.137Z,87.52
2017-10-17T07:55:14.017Z,86.94
2017-10-17T07:56:22.783Z,86.76
2017-10-17T07:57:12.933Z,86.66
2017-10-17T07:58:14.127Z,86.37
2017-10-17T07:59:13.629Z,86.18
2017-10-17T08:00:13.916Z,85.99
2017-10-17T08:01:13.732Z,85.65
2017-10-17T08:02:12.863Z,85.36
2017-10-17T08:03:13.763Z,84.98
2017-10-17T08:04:13.229Z,84.98
2017-10-17T08:05:13.391Z,84.41
2017-10-17T08:06:12.431Z,84.41
2017-10-17T08:07:12.393Z,84.59
2017-10-17T08:08:12.903Z,84.22
2017-10-17T08:09:13.421Z,83.73
2017-10-17T08:10:12.334Z,83.64
2017-10-17T08:11:13.400Z,83.45
2017-10-17T08:12:12.774Z,83.45
2017-10-17T08:13:13.139Z,83.16
2017-10-17T08:14:13.595Z,82.87
2017-10-17T08:15:13.150Z,82.59
2017-10-17T08:16:12.975Z,82.87
2017-10-17T08:17:13.437Z,82.78
2017-10-17T08:18:12.799Z,82.78
2017-10-17T08:19:13.685Z,82.87
2017-10-17T08:20:13.326Z,82.49
2017-10-17T08:21:12.899Z,82.40
2017-10-17T08:22:13.332Z,82.30
2017-10-17T08:23:13.009Z,82.34
2017-10-17T08:24:13.923Z,82.43
2017-10-17T08:25:12.691Z,81.96
2017-10-17T08:26:13.091Z,81.48
2017-10-17T08:27:13.112Z,81.00
2017-10-17T08:28:13.682Z,81.00
2017-10-17T08:29:14.099Z,80.71
2017-10-17T08:30:13.389Z,80.24
2017-10-17T08:31:12.267Z,80.24
2017-10-17T08:32:12.815Z,80.14
2017-10-17T08:33:13.040Z,80.18
2017-10-17T08:34:12.720Z,79.32
2017-10-17T08:35:12.938Z,79.60
2017-10-17T08:36:13.429Z,79.22
2017-10-17T08:37:13.288Z,78.40
2017-10-17T08:38:13.213Z,76.96
2017-10-17T08:39:13.364Z,75.85
2017-10-17T08:40:13.486Z,74.69
2017-10-17T08:41:12.709Z,73.97
2017-10-17T08:42:13.237Z,73.20
2017-10-17T08:43:13.009Z,72.91
2017-10-17T08:44:12.618Z,72.08
2017-10-17T08:45:13.074Z,71.80
2017-10-17T08:46:13.449Z,71.31
2017-10-17T08:47:13.239Z,70.64
2017-10-17T08:48:13.022Z,70.17
2017-10-17T08:49:14.280Z,69.97
2017-10-17T08:50:12.562Z,69.78
2017-10-17T08:51:12.610Z,69.14
2017-10-17T08:52:13.146Z,68.76
2017-10-17T08:53:14.426Z,69.05
2017-10-17T08:54:13.655Z,69.11
2017-10-17T08:55:12.752Z,67.99
2017-10-17T08:56:12.960Z,67.51
2017-10-17T08:57:13.428Z,66.49
2017-10-17T08:58:12.873Z,66.64
2017-10-17T08:59:13.007Z,66.49
2017-10-17T09:00:13.811Z,66.00
2017-10-17T09:01:13.121Z,65.62
2017-10-17T09:02:13.202Z,65.62
2017-10-17T09:03:12.434Z,65.43
2017-10-17T09:04:12.864Z,65.43
2017-10-17T09:05:13.556Z,64.85
2017-10-17T09:06:12.871Z,64.95
2017-10-17T09:07:13.411Z,64.95
2017-10-17T09:08:13.068Z,64.69
2017-10-17T09:09:12.861Z,63.73
2017-10-17T09:10:13.383Z,63.45
2017-10-17T09:11:13.038Z,63.35
2017-10-17T09:12:13.388Z,62.96
2017-10-17T09:13:12.844Z,62.58
2017-10-17T09:14:13.248Z,62.38
2017-10-17T09:15:12.754Z,62.38
2017-10-17T09:16:13.407Z,62.68
2017-10-17T09:17:12.851Z,62.87
2017-10-17T09:18:13.539Z,62.77
2017-10-17T09:19:13.268Z,62.38
2017-10-17T09:20:13.144Z,61.91
2017-10-17T09:21:12.480Z,61.71
2017-10-17T09:22:13.656Z,62.00
2017-10-17T09:23:13.896Z,61.84
2017-10-17T09:24:13.455Z,61.36
2017-10-17T09:25:12.979Z,61.65
2017-10-17T09:26:13.347Z,60.97
2017-10-17T09:27:15.342Z,60.78
2017-10-17T09:28:13.755Z,60.49
2017-10-17T09:32:47.095Z,60.49
2017-10-17T09:33:47.344Z,60.11
2017-10-17T09:34:46.739Z,60.21
2017-10-17T09:35:46.205Z,60.11
2017-10-17T09:36:46.748Z,60.11
2017-10-17T09:37:46.943Z,59.17
2017-10-17T09:38:47.753Z,59.27
2017-10-17T09:39:47.659Z,58.89
2017-10-17T09:40:46.862Z,58.50
2017-10-17T09:41:46.126Z,58.50
2017-10-17T09:42:46.876Z,58.89
2017-10-17T09:43:45.947Z,58.15
2017-10-17T09:44:46.523Z,57.47
2017-10-17T09:45:47.061Z,57.86
2017-10-17T09:46:46.908Z,57.86
2017-10-17T09:47:47.001Z,57.47
2017-10-17T09:48:46.539Z,56.99
2017-10-17T09:49:46.565Z,56.70
2017-10-17T09:50:47.128Z,56.44
2017-10-17T09:51:47.136Z,57.67
2017-10-17T09:52:47.534Z,57.37
2017-10-17T09:53:47.156Z,57.28
2017-10-17T09:54:46.904Z,57.40
2017-10-17T09:55:46.483Z,57.31
2017-10-17T09:56:47.098Z,57.12
2017-10-17T09:57:46.227Z,56.63
2017-10-17T09:58:46.940Z,57.18
2017-10-17T09:59:46.265Z,58.34
2017-10-17T10:00:47.117Z,58.44
2017-10-17T10:01:46.801Z,58.34
2017-10-17T10:02:46.808Z,57.76
2017-10-17T10:03:46.802Z,57.76
2017-10-17T10:04:46.433Z,57.67
2017-10-17T10:05:46.817Z,57.76
2017-10-17T10:06:46.732Z,58.05
2017-10-17T10:07:46.482Z,57.86
2017-10-17T10:08:47.920Z,57.31
2017-10-17T10:09:47.690Z,57.12
2017-10-17T10:10:47.282Z,56.92
2017-10-17T10:11:46.456Z,56.82
2017-10-17T10:12:47.104Z,56.05
2017-10-17T10:13:46.564Z,55.57
2017-10-17T10:14:47.681Z,55.57
2017-10-17T10:15:47.247Z,55.67
2017-10-17T10:16:46.524Z,55.38
2017-10-17T10:17:47.279Z,55.41
2017-10-17T10:18:46.599Z,55.79
2017-10-17T10:19:46.024Z,55.41
2017-10-17T10:20:48.044Z,55.57
2017-10-17T10:21:46.841Z,55.96
2017-10-17T10:22:46.929Z,55.89
2017-10-17T10:23:46.462Z,55.02
2017-10-17T10:24:46.064Z,54.06
2017-10-17T10:25:46.883Z,54.06
2017-10-17T10:26:45.994Z,54.16
2017-10-17T10:27:46.014Z,53.84
2017-10-17T10:28:46.321Z,54.52
2017-10-17T10:29:46.911Z,54.90
2017-10-17T10:30:47.689Z,54.54
2017-10-17T10:31:47.442Z,54.44
2017-10-17T10:32:46.264Z,53.77
2017-10-17T10:33:46.796Z,53.77
2017-10-17T10:34:45.860Z,54.06
2017-10-17T10:35:47.578Z,54.16
2017-10-17T10:36:46.846Z,53.87
2017-10-17T10:37:46.400Z,54.25
2017-10-17T10:38:46.800Z,54.35
2017-10-17T10:39:46.611Z,53.77
2017-10-17T10:40:46.417Z,53.48
2017-10-17T10:41:46.265Z,53.39
2017-10-17T10:42:46.580Z,53.48
2017-10-17T10:43:46.366Z,53.67
2017-10-17T10:44:47.153Z,52.91
2017-10-17T10:45:47.025Z,52.91
2017-10-17T10:46:47.593Z,52.52
2017-10-17T10:47:47.216Z,52.45
2017-10-17T10:48:46.657Z,51.48
2017-10-17T10:49:48.375Z,51.77
2017-10-17T10:50:46.687Z,52.52
2017-10-17T10:51:46.636Z,51.84
2017-10-17T10:52:46.759Z,52.81
2017-10-17T10:53:46.600Z,52.91
2017-10-17T10:54:46.766Z,52.61
2017-10-17T10:55:46.310Z,51.94
2017-10-17T10:56:47.189Z,51.84
2017-10-17T10:57:47.079Z,51.65
2017-10-17T10:58:46.648Z,52.42
2017-10-17T10:59:47.226Z,52.81
2017-10-17T11:00:47.095Z,52.33
2017-10-17T11:01:46.859Z,52.81
2017-10-17T11:02:46.978Z,52.33
2017-10-17T11:03:46.582Z,51.97
2017-10-17T11:04:46.883Z,51.77
2017-10-17T11:05:46.465Z,50.62
2017-10-17T11:06:46.581Z,50.71
2017-10-17T11:07:46.288Z,51.00
2017-10-17T11:08:46.800Z,52.06
2017-10-17T11:09:46.906Z,51.77
2017-10-17T11:10:46.366Z,52.23
2017-10-17T11:11:46.619Z,52.23
2017-10-17T11:12:47.423Z,52.33
2017-10-17T11:13:46.835Z,52.23
2017-10-17T11:14:46.621Z,52.25
2017-10-17T11:15:46.031Z,51.97
2017-10-17T11:16:46.697Z,51.03
2017-10-17T11:17:46.084Z,50.35
2017-10-17T11:18:46.794Z,50.42
2017-10-17T11:19:46.526Z,50.45
2017-10-17T11:20:46.719Z,50.23
2017-10-17T11:21:46.026Z,50.81
2017-10-17T11:22:46.324Z,50.54
2017-10-17T11:23:47.223Z,50.64
2017-10-17T11:24:47.333Z,50.90
2017-10-17T11:25:46.506Z,50.90
2017-10-17T11:26:46.170Z,51.10
2017-10-17T11:27:46.929Z,51.68
2017-10-17T11:28:46.566Z,51.51
2017-10-17T11:29:46.777Z,50.84
2017-10-17T11:30:47.175Z,50.64
2017-10-17T11:31:46.685Z,50.93
2017-10-17T11:32:47.294Z,50.90
2017-10-17T11:33:46.928Z,51.29
2017-10-17T11:34:46.211Z,51.39
2017-10-17T11:35:46.672Z,51.39
2017-10-17T11:36:46.232Z,52.13
2017-10-17T11:37:46.549Z,51.94
2017-10-17T11:38:46.163Z,51.75
2017-10-17T11:39:47.078Z,52.13
2017-10-17T11:40:46.590Z,52.81
2017-10-17T11:41:45.982Z,52.61
2017-10-17T11:42:46.431Z,52.45
2017-10-17T11:43:46.765Z,52.64
2017-10-17T11:44:46.833Z,52.13
2017-10-17T11:45:46.223Z,52.16
2017-10-17T11:46:46.821Z,52.23
2017-10-17T11:47:46.883Z,52.61
2017-10-17T11:48:46.723Z,52.91
2017-10-17T11:49:46.958Z,53.00
2017-10-17T11:50:46.524Z,53.09
2017-10-17T11:51:46.153Z,53.00
2017-10-17T11:52:46.720Z,53.19
2017-10-17T11:53:46.667Z,53.39
2017-10-17T11:54:46.875Z,53.58
2017-10-17T11:55:46.624Z,53.09
2017-10-17T11:56:47.164Z,53.00
2017-10-17T11:57:46.487Z,53.48
2017-10-17T11:58:45.969Z,53.29
2017-10-17T11:59:46.761Z,53.48
2017-10-17T12:00:46.330Z,53.41
2017-10-17T12:01:48.074Z,53.51
2017-10-17T12:02:46.849Z,53.41
2017-10-17T12:03:46.853Z,53.13
2017-10-17T12:04:47.343Z,53.31
2017-10-17T12:05:46.801Z,53.03
2017-10-17T12:06:45.790Z,52.55
2017-10-17T12:07:45.689Z,52.71
2017-10-17T12:08:45.856Z,53.48
2017-10-17T12:09:46.771Z,53.87
2017-10-17T12:10:46.670Z,53.58
2017-10-17T12:11:45.887Z,53.77
2017-10-17T12:12:46.175Z,53.67
2017-10-17T12:13:46.374Z,53.58
2017-10-17T12:14:47.336Z,54.64
2017-10-17T12:15:46.556Z,54.90
2017-10-17T12:16:46.093Z,54.93
2017-10-17T12:17:46.793Z,54.64
2017-10-17T12:18:46.104Z,54.83
2017-10-17T12:19:46.369Z,55.02
2017-10-17T12:20:46.943Z,54.54
2017-10-17T12:21:46.326Z,54.54
2017-10-17T12:22:46.776Z,55.09
2017-10-17T12:23:46.427Z,55.19
2017-10-17T12:24:47.029Z,55.38
2017-10-17T12:25:46.860Z,55.38
2017-10-17T12:26:46.653Z,55.96
2017-10-17T12:27:46.194Z,55.77
2017-10-17T12:28:47.016Z,55.29
2017-10-17T12:29:47.018Z,54.83
2017-10-17T12:30:46.622Z,54.83
2017-10-17T12:31:46.461Z,54.90
2017-10-17T12:32:47.612Z,55.00
2017-10-17T12:33:46.422Z,55.57
2017-10-17T12:34:46.265Z,55.96
2017-10-17T12:35:46.909Z,55.77
2017-10-17T12:36:46.491Z,55.96
2017-10-17T12:37:47.308Z,55.57
2017-10-17T12:38:47.354Z,55.12
2017-10-17T12:39:45.937Z,55.57
2017-10-17T12:40:46.583Z,55.29
2017-10-17T12:41:45.758Z,55.96
2017-10-17T12:42:46.255Z,56.44
2017-10-17T12:43:48.516Z,55.96
2017-10-17T12:44:46.049Z,56.63
2017-10-17T12:45:46.945Z,56.54
2017-10-17T12:46:46.159Z,56.44
2017-10-17T12:47:46.899Z,57.12
2017-10-17T12:48:47.245Z,56.54
2017-10-17T12:49:47.301Z,56.92
2017-10-17T12:50:46.540Z,56.92
2017-10-17T12:51:46.914Z,56.54
2017-10-17T12:52:47.021Z,57.28
2017-10-17T12:53:47.879Z,57.86
2017-10-17T12:54:46.156Z,57.95
2017-10-17T12:55:46.928Z,57.76